TimeMDT,TemperatureF,Dew PointF,Humidity,Sea Level PressureIn,VisibilityMPH,Wind Direction,Wind SpeedMPH,Gust SpeedMPH,PrecipitationIn,Events,Conditions,WindDirDegrees,DateUTC
12:53 AM,66.9,34.0,30,29.87,10.0,WSW,9.2,-,N/A,,Clear,240,2013-08-18 06:53:00
1:53 AM,68.0,34.0,28,29.87,10.0,Calm,Calm,-,N/A,,Clear,0,2013-08-18 07:53:00
2:53 AM,62.1,34.0,35,29.89,10.0,Calm,Calm,-,N/A,,Clear,0,2013-08-18 08:53:00
3:53 AM,63.0,34.0,34,29.89,10.0,Variable,3.5,-,N/A,,Clear,0,2013-08-18 09:53:00
4:53 AM,64.9,35.1,33,29.90,10.0,Variable,6.9,-,N/A,,Clear,0,2013-08-18 10:53:00
5:53 AM,59.0,35.1,41,29.92,10.0,SSW,4.6,-,N/A,,Clear,210,2013-08-18 11:53:00
6:53 AM,64.0,35.1,34,29.94,10.0,SW,11.5,-,N/A,,Clear,230,2013-08-18 12:53:00
7:53 AM,61.0,35.1,38,29.99,10.0,Calm,Calm,-,N/A,,Clear,0,2013-08-18 13:53:00
8:53 AM,72.0,36.0,27,29.99,10.0,SSW,9.2,-,N/A,,Partly Cloudy,210,2013-08-18 14:53:00
9:53 AM,73.0,37.0,27,30.01,10.0,West,6.9,-,N/A,,Clear,270,2013-08-18 15:53:00
10:53 AM,79.0,37.0,22,29.97,10.0,SW,17.3,23.0,N/A,,Mostly Cloudy,230,2013-08-18 16:53:00
11:53 AM,84.0,36.0,18,29.94,10.0,WSW,19.6,26.5,N/A,,Clear,250,2013-08-18 17:53:00
12:53 PM,86.0,34.0,16,29.93,10.0,West,20.7,28.8,N/A,,Clear,260,2013-08-18 18:53:00
1:53 PM,88.0,32.0,14,29.90,10.0,WSW,15.0,24.2,N/A,,Partly Cloudy,250,2013-08-18 19:53:00
2:53 PM,87.1,30.9,13,29.90,10.0,West,12.7,21.9,N/A,,Clear,260,2013-08-18 20:53:00
3:53 PM,89.1,30.0,12,29.87,10.0,West,12.7,18.4,N/A,,Clear,280,2013-08-18 21:53:00
4:53 PM,87.1,28.0,12,29.85,10.0,West,5.8,-,N/A,,Partly Cloudy,270,2013-08-18 22:53:00
5:53 PM,86.0,30.0,13,29.87,10.0,North,8.1,-,N/A,,Scattered Clouds,350,2013-08-18 23:53:00
6:53 PM,84.9,28.9,13,29.85,10.0,North,6.9,-,N/A,,Clear,350,2013-08-19 00:53:00
7:53 PM,78.1,30.9,18,29.88,10.0,North,6.9,-,N/A,,Clear,10,2013-08-19 01:53:00
8:53 PM,68.0,30.9,25,29.89,10.0,NNW,8.1,-,N/A,,Clear,330,2013-08-19 02:53:00
9:53 PM,68.0,43.0,40,29.92,10.0,East,11.5,-,N/A,,Clear,90,2013-08-19 03:53:00
10:53 PM,63.0,44.1,50,29.93,10.0,Calm,Calm,-,N/A,,Clear,0,2013-08-19 04:53:00
11:53 PM,61.0,42.1,50,29.93,10.0,ESE,4.6,-,N/A,,Clear,110,2013-08-19 05:53:00